Time;durP1;ratioP1;P1;durP2;ratioP2;P2;SDS_P1;SDS_P2;PMS_P1;PMS_P2;Temp;Humidity;BMP_temperature;BMP_pressure;BME280_temperature;BME280_humidity;BME280_pressure;Samples;Min_cycle;Max_cycle;Signal;HPM_P1;HPM_P2
2022/12/06 00:01:34;;;;;;;13.17;7.70;;;7.50;99.90;;;;;;5092944;23;20616;-91
2022/12/06 00:03:36;;;;;;;18.63;8.60;;;7.50;99.90;;;;;;5093060;23;20153;-90
2022/12/06 00:05:37;;;;;;;16.65;7.93;;;7.60;99.90;;;;;;5092733;23;20689;-91
2022/12/06 00:07:38;;;;;;;21.00;8.73;;;7.60;99.90;;;;;;5092833;23;20156;-90
2022/12/06 00:09:39;;;;;;;18.73;8.85;;;7.60;99.90;;;;;;5092867;23;20153;-89
2022/12/06 00:11:40;;;;;;;17.80;7.88;;;7.60;99.90;;;;;;5093141;23;20596;-90
2022/12/06 00:13:41;;;;;;;18.23;8.37;;;7.40;99.90;;;;;;5092616;23;20316;-91
2022/12/06 00:15:42;;;;;;;12.33;7.83;;;7.20;99.90;;;;;;5117989;23;20242;-90
2022/12/06 00:17:43;;;;;;;18.37;8.20;;;7.30;99.90;;;;;;5092353;23;20184;-91
2022/12/06 00:19:43;;;;;;;13.52;8.18;;;7.20;99.90;;;;;;5092921;23;20239;-90
2022/12/06 00:21:46;;;;;;;14.17;7.97;;;7.30;99.90;;;;;;5092881;23;20580;-90
2022/12/06 00:23:49;;;;;;;13.17;7.43;;;7.40;99.90;;;;;;5117373;23;20243;-92
2022/12/06 00:25:50;;;;;;;18.40;8.40;;;7.70;99.90;;;;;;5092538;23;20300;-91
2022/12/06 00:27:51;;;;;;;17.87;8.83;;;8.30;99.90;;;;;;5093079;23;20149;-92
2022/12/06 00:29:51;;;;;;;15.67;8.80;;;8.40;99.90;;;;;;5092839;23;20232;-90
2022/12/06 00:31:53;;;;;;;12.30;8.00;;;8.10;99.90;;;;;;5092811;23;20153;-93
2022/12/06 00:33:53;;;;;;;17.97;9.73;;;8.10;99.90;;;;;;5092942;23;20189;-90
2022/12/06 00:35:55;;;;;;;15.70;8.70;;;8.40;99.90;;;;;;5092628;23;20176;-90
2022/12/06 00:37:56;;;;;;;16.07;9.27;;;8.60;99.90;;;;;;5081501;23;20241;-91
2022/12/06 00:39:57;;;;;;;17.60;9.97;;;8.30;99.90;;;;;;5068218;23;20541;-90
2022/12/06 00:41:58;;;;;;;18.20;9.50;;;8.10;99.90;;;;;;5068052;23;20235;-91
2022/12/06 00:43:59;;;;;;;18.30;9.53;;;8.10;99.90;;;;;;5068286;23;20212;-90
2022/12/06 00:46:00;;;;;;;22.17;10.50;;;8.10;99.90;;;;;;5068198;23;20550;-91
2022/12/06 00:48:01;;;;;;;19.87;9.97;;;8.10;99.90;;;;;;5092442;23;20191;-92
2022/12/06 00:50:02;;;;;;;21.23;10.63;;;7.80;99.90;;;;;;5068210;23;20146;-92
2022/12/06 00:52:04;;;;;;;18.60;10.80;;;7.70;99.90;;;;;;5068325;23;20240;-91
2022/12/06 00:54:06;;;;;;;20.67;10.43;;;7.80;99.90;;;;;;5068040;23;20220;-90
2022/12/06 00:56:07;;;;;;;21.57;10.47;;;7.80;99.90;;;;;;5068061;23;20152;-93
2022/12/06 00:58:08;;;;;;;22.23;11.40;;;7.90;99.90;;;;;;5092394;23;20272;-89
2022/12/06 01:00:09;;;;;;;21.33;11.17;;;7.80;99.90;;;;;;5068343;23;20633;-91
2022/12/06 01:02:10;;;;;;;21.50;11.30;;;7.80;99.90;;;;;;5092846;23;20173;-91
2022/12/06 01:04:11;;;;;;;23.87;11.67;;;7.80;99.90;;;;;;5068256;23;20156;-90
2022/12/06 01:06:14;;;;;;;28.23;11.27;;;7.80;99.90;;;;;;5092586;23;20152;-90
2022/12/06 01:08:16;;;;;;;23.20;11.73;;;7.90;99.90;;;;;;5067877;23;20481;-91
2022/12/06 01:10:17;;;;;;;20.73;11.00;;;8.00;99.90;;;;;;5093055;23;20161;-90
2022/12/06 01:12:18;;;;;;;28.40;11.73;;;8.10;99.90;;;;;;5068125;23;20613;-91
2022/12/06 01:14:19;;;;;;;27.10;13.10;;;8.10;99.90;;;;;;5068026;23;20209;-92
2022/12/06 01:16:25;;;;;;;24.73;12.10;;;8.00;99.90;;;;;;5092974;23;20153;-89
2022/12/06 01:18:26;;;;;;;26.10;12.07;;;8.00;99.90;;;;;;5068192;23;20247;-92
2022/12/06 01:20:26;;;;;;;31.63;12.10;;;8.10;99.90;;;;;;5068520;23;20161;-91
2022/12/06 01:22:27;;;;;;;34.10;14.00;;;8.10;99.90;;;;;;5068030;23;20162;-89
2022/12/06 01:24:28;;;;;;;27.10;12.53;;;7.80;99.90;;;;;;5092274;23;20184;-91
2022/12/06 01:26:31;;;;;;;28.67;13.27;;;7.70;99.90;;;;;;5094741;23;20157;-90
2022/12/06 01:28:32;;;;;;;32.93;14.17;;;7.70;99.90;;;;;;5070737;23;20153;-92
2022/12/06 01:30:33;;;;;;;26.77;12.87;;;7.70;99.90;;;;;;5069966;23;20154;-92
2022/12/06 01:32:33;;;;;;;26.33;13.37;;;7.90;99.90;;;;;;5070078;23;20216;-91
2022/12/06 01:34:34;;;;;;;25.67;12.67;;;7.50;99.90;;;;;;5070202;23;20169;-94
2022/12/06 01:36:35;;;;;;;29.27;13.33;;;7.80;99.90;;;;;;5069569;23;20184;-91
2022/12/06 01:38:35;;;;;;;27.40;13.63;;;8.10;99.90;;;;;;5089352;23;20197;-90
2022/12/06 01:40:44;;;;;;;28.30;13.13;;;8.10;99.90;;;;;;5118605;23;20163;-90
2022/12/06 01:42:45;;;;;;;27.33;13.30;;;8.20;99.90;;;;;;5119074;23;20667;-90
2022/12/06 01:44:53;;;;;;;25.13;12.73;;;8.30;99.90;;;;;;5093220;23;20169;-91
2022/12/06 01:46:54;;;;;;;28.37;13.83;;;8.20;99.90;;;;;;5093975;23;20204;-92
2022/12/06 01:49:08;;;;;;;31.47;13.77;;;8.30;99.90;;;;;;5094481;23;20153;-91
2022/12/06 01:51:12;;;;;;;33.03;14.10;;;8.20;99.90;;;;;;5093879;23;20145;-91
2022/12/06 01:53:14;;;;;;;31.63;14.53;;;8.10;99.90;;;;;;5094016;23;20567;-91
2022/12/06 01:55:17;;;;;;;29.63;13.07;;;8.20;99.90;;;;;;5093883;23;20248;-90
2022/12/06 01:57:18;;;;;;;27.63;13.97;;;8.10;99.90;;;;;;5118387;23;20496;-92
2022/12/06 01:59:21;;;;;;;32.17;14.23;;;8.10;99.90;;;;;;5093603;23;20272;-90
2022/12/06 02:01:23;;;;;;;32.90;13.27;;;8.00;99.90;;;;;;5093949;23;20165;-90
2022/12/06 02:03:27;;;;;;;30.43;14.40;;;8.00;99.90;;;;;;5093955;23;20583;-91
2022/12/06 02:05:29;;;;;;;30.60;13.43;;;7.90;99.90;;;;;;5118522;23;20176;-91
2022/12/06 02:07:31;;;;;;;28.80;13.37;;;7.90;99.90;;;;;;5093906;23;20584;-89
2022/12/06 02:09:32;;;;;;;27.83;12.60;;;7.50;99.90;;;;;;5118624;23;20148;-90
2022/12/06 02:11:33;;;;;;;26.00;11.83;;;7.40;99.90;;;;;;5118438;23;20602;-92
2022/12/06 02:13:35;;;;;;;25.70;12.70;;;7.30;99.90;;;;;;5094928;23;20176;-91
2022/12/06 02:16:00;;;;;;;25.70;12.27;;;7.20;99.90;;;;;;5098025;23;20177;-90
2022/12/06 02:18:13;;;;;;;25.40;11.67;;;7.20;99.90;;;;;;5109343;23;20177;-90
2022/12/06 02:20:30;;;;;;;26.97;11.60;;;6.90;99.90;;;;;;5094282;23;20203;-91
2022/12/06 02:23:08;;;;;;;21.07;10.97;;;6.80;99.90;;;;;;5094277;23;20492;-93
2022/12/06 02:25:39;;;;;;;25.27;11.53;;;6.70;99.90;;;;;;5118457;23;20183;-92
2022/12/06 02:28:12;;;;;;;21.10;10.03;;;6.90;99.90;;;;;;5093842;23;20153;-90
2022/12/06 02:30:35;;;;;;;20.67;10.67;;;6.90;99.90;;;;;;5093753;23;20181;-91
2022/12/06 02:32:46;;;;;;;18.27;11.27;;;7.00;99.90;;;;;;5073168;23;20401;-93
2022/12/06 02:34:59;;;;;;;26.83;10.93;;;7.10;99.90;;;;;;5094022;23;20243;-92
2022/12/06 02:37:08;;;;;;;18.37;10.27;;;7.10;99.90;;;;;;5092923;23;20156;-90
2022/12/06 02:39:33;;;;;;;20.93;9.70;;;7.00;99.90;;;;;;5093415;23;20189;-91
2022/12/06 02:42:05;;;;;;;15.80;9.40;;;7.10;99.90;;;;;;5094058;23;20201;-93
2022/12/06 02:44:17;;;;;;;19.48;10.38;;;7.20;99.90;;;;;;5099823;23;20219;-93
2022/12/06 02:46:20;;;;;;;16.17;8.93;;;7.30;99.90;;;;;;5093786;23;20149;-92
2022/12/06 02:48:23;;;;;;;17.10;9.77;;;7.40;99.90;;;;;;5093382;23;20149;-92
2022/12/06 02:50:30;;;;;;;19.65;10.35;;;7.50;99.90;;;;;;5093261;23;20157;-91
2022/12/06 02:52:32;;;;;;;22.80;9.38;;;7.50;99.90;;;;;;5093887;23;20164;-94
2022/12/06 02:54:33;;;;;;;13.95;8.38;;;7.50;99.90;;;;;;5093661;23;20622;-94
2022/12/06 02:56:34;;;;;;;17.05;9.30;;;7.50;99.90;;;;;;5093129;23;20149;-92
2022/12/06 02:58:36;;;;;;;15.50;8.23;;;7.50;99.90;;;;;;5093603;23;20235;-91
2022/12/06 03:00:40;;;;;;;17.77;8.88;;;7.60;99.90;;;;;;5093407;23;20157;-92
2022/12/06 03:02:41;;;;;;;18.00;9.20;;;7.70;99.90;;;;;;5093201;23;20156;-92
2022/12/06 03:04:48;;;;;;;20.65;9.00;;;7.70;99.90;;;;;;5117641;23;20169;-92
2022/12/06 03:06:49;;;;;;;17.70;9.60;;;7.70;99.90;;;;;;5093660;23;20162;-94
2022/12/06 03:09:11;;;;;;;18.05;8.43;;;7.70;99.90;;;;;;5118117;23;20152;-93
2022/12/06 03:11:12;;;;;;;16.23;9.35;;;7.90;99.90;;;;;;5093551;23;20184;-91
2022/12/06 03:13:28;;;;;;;21.35;9.90;;;8.00;99.90;;;;;;5094038;23;20151;-93
2022/12/06 03:15:50;;;;;;;21.38;9.80;;;7.90;99.90;;;;;;5093074;23;20172;-91
2022/12/06 03:18:17;;;;;;;20.33;9.73;;;7.90;99.90;;;;;;5093468;23;20584;-91
2022/12/06 03:20:41;;;;;;;23.63;10.20;;;7.70;99.90;;;;;;5093357;23;20165;-92
2022/12/06 03:22:49;;;;;;;21.20;9.80;;;7.70;99.90;;;;;;5093302;23;20157;-93
2022/12/06 03:24:50;;;;;;;25.88;9.65;;;7.80;99.90;;;;;;5092945;23;20179;-91
2022/12/06 03:26:55;;;;;;;19.23;10.20;;;7.60;99.90;;;;;;5093814;23;20236;-90
2022/12/06 03:28:59;;;;;;;19.30;10.53;;;7.70;99.90;;;;;;5093432;23;20223;-91
2022/12/06 03:31:04;;;;;;;24.63;10.70;;;8.00;99.90;;;;;;5093738;23;20232;-93
2022/12/06 03:33:05;;;;;;;19.10;10.30;;;7.90;99.90;;;;;;5092935;23;20168;-92
2022/12/06 03:35:10;;;;;;;23.13;11.07;;;8.00;99.90;;;;;;5092871;23;20176;-92
2022/12/06 03:37:16;;;;;;;22.97;10.83;;;8.10;99.90;;;;;;5092781;23;20157;-92
2022/12/06 03:39:34;;;;;;;15.67;9.43;;;8.20;99.90;;;;;;5117653;23;20192;-93
2022/12/06 03:41:47;;;;;;;24.50;10.63;;;7.80;99.90;;;;;;5093480;23;20465;-91
2022/12/06 03:43:48;;;;;;;22.33;10.53;;;7.80;99.90;;;;;;5093472;23;20160;-93
2022/12/06 03:45:58;;;;;;;26.70;10.87;;;7.60;99.90;;;;;;5093833;23;20173;-90
2022/12/06 03:48:02;;;;;;;23.97;10.47;;;7.80;99.90;;;;;;5092925;23;20160;-91
2022/12/06 03:50:42;;;;;;;23.13;9.97;;;7.60;99.90;;;;;;5117434;23;20183;-90
2022/12/06 03:52:43;;;;;;;20.90;10.50;;;7.40;99.90;;;;;;5092711;23;20172;-91
2022/12/06 03:54:44;;;;;;;19.53;10.73;;;7.60;99.90;;;;;;5117667;23;20180;-92
2022/12/06 03:56:45;;;;;;;23.00;11.07;;;8.00;99.90;;;;;;5093134;23;20232;-92
2022/12/06 03:58:45;;;;;;;22.30;10.50;;;8.20;99.90;;;;;;5093247;23;20243;-92
2022/12/06 04:00:46;;;;;;;25.03;11.07;;;8.20;99.90;;;;;;5093063;23;20154;-92
2022/12/06 04:02:47;;;;;;;21.50;10.47;;;7.80;99.90;;;;;;5092687;23;20163;-93
2022/12/06 04:04:48;;;;;;;20.13;10.90;;;7.70;99.90;;;;;;5117155;23;20693;-91
2022/12/06 04:06:50;;;;;;;20.17;10.40;;;7.40;99.90;;;;;;5093262;23;20605;-92
2022/12/06 04:08:51;;;;;;;21.03;10.07;;;7.40;99.90;;;;;;5117731;23;20156;-92
2022/12/06 04:10:51;;;;;;;21.03;10.40;;;7.60;99.90;;;;;;5092976;23;20152;-91
2022/12/06 04:13:01;;;;;;;19.23;9.33;;;7.50;99.90;;;;;;5093179;23;20157;-90
2022/12/06 04:15:04;;;;;;;20.02;10.07;;;7.40;99.90;;;;;;5093101;23;20175;-91
2022/12/06 04:19:24;;;;;;;21.27;9.48;;;7.10;99.90;;;;;;5117733;23;20184;-90
2022/12/06 04:23:38;;;;;;;17.52;9.60;;;7.20;99.90;;;;;;5117147;23;20155;-93
2022/12/06 04:25:39;;;;;;;17.00;9.57;;;7.30;99.90;;;;;;5092579;23;20172;-91
2022/12/06 04:39:16;;;;;;;23.15;9.70;;;7.10;99.90;;;;;;5117497;23;20614;-93
2022/12/06 04:43:43;;;;;;;14.85;8.60;;;7.20;99.90;;;;;;5118580;23;20152;-93
2022/12/06 04:45:43;;;;;;;15.40;8.20;;;7.10;99.90;;;;;;5108818;23;20152;-91
2022/12/06 04:47:44;;;;;;;15.60;8.57;;;7.10;99.90;;;;;;5100118;23;20161;-93
2022/12/06 04:49:45;;;;;;;18.27;8.77;;;7.10;99.90;;;;;;5093465;23;20145;-91
2022/12/06 04:51:45;;;;;;;19.00;8.52;;;6.90;99.90;;;;;;5092857;23;20215;-92
2022/12/06 04:53:46;;;;;;;15.70;8.40;;;7.10;99.90;;;;;;5092788;23;20299;-93
2022/12/06 04:55:47;;;;;;;15.88;8.38;;;7.20;99.90;;;;;;5093020;23;20455;-91
2022/12/06 04:57:48;;;;;;;25.50;9.30;;;7.00;99.90;;;;;;5092457;23;20153;-93
2022/12/06 04:59:49;;;;;;;16.87;8.93;;;7.20;99.90;;;;;;5092628;23;20485;-90
2022/12/06 05:01:51;;;;;;;20.70;9.00;;;7.10;99.90;;;;;;5092571;23;20232;-92
2022/12/06 05:03:51;;;;;;;26.93;9.57;;;6.90;99.90;;;;;;5117004;23;20295;-92
2022/12/06 05:05:52;;;;;;;25.30;9.33;;;7.00;99.90;;;;;;5093154;23;20169;-91
2022/12/06 05:07:53;;;;;;;16.53;9.50;;;6.80;99.90;;;;;;5092825;23;20156;-90
2022/12/06 05:09:54;;;;;;;14.23;8.50;;;6.70;99.90;;;;;;5092910;23;20267;-93
2022/12/06 05:11:54;;;;;;;23.67;9.27;;;6.70;99.90;;;;;;5117491;23;20179;-91
2022/12/06 05:13:55;;;;;;;25.40;9.93;;;7.00;99.90;;;;;;5093070;23;20202;-91
2022/12/06 05:15:58;;;;;;;23.93;10.03;;;7.40;99.90;;;;;;5092983;23;20498;-90
2022/12/06 05:17:59;;;;;;;23.50;9.57;;;8.20;99.90;;;;;;5092228;23;20239;-90
2022/12/06 05:20:00;;;;;;;17.97;9.83;;;8.10;99.90;;;;;;5093101;23;20145;-90
2022/12/06 05:22:01;;;;;;;27.13;10.37;;;8.30;99.90;;;;;;5092742;23;20180;-91
2022/12/06 05:24:01;;;;;;;24.30;11.20;;;8.20;99.90;;;;;;5092617;23;20156;-93
2022/12/06 05:26:16;;;;;;;29.13;13.33;;;7.60;99.90;;;;;;5092859;23;20189;-94
2022/12/06 05:28:17;;;;;;;29.43;12.07;;;7.20;99.90;;;;;;5092326;23;20157;-92
2022/12/06 05:30:18;;;;;;;32.87;16.83;;;7.20;99.90;;;;;;5092370;23;20160;-92
2022/12/06 05:32:19;;;;;;;21.33;12.93;;;6.90;99.90;;;;;;5092325;23;20157;-92
2022/12/06 05:34:19;;;;;;;20.13;10.27;;;6.70;99.90;;;;;;5092388;23;20177;-89
2022/12/06 05:36:24;;;;;;;29.00;10.00;;;6.60;99.90;;;;;;5117053;23;20271;-93
2022/12/06 05:38:24;;;;;;;22.13;9.73;;;6.30;99.90;;;;;;5074820;23;20189;-92
2022/12/06 05:40:25;;;;;;;23.93;13.40;;;6.30;99.90;;;;;;5068506;23;20197;-92
2022/12/06 05:42:26;;;;;;;27.27;9.80;;;6.40;99.90;;;;;;5067786;23;20149;-93
2022/12/06 05:44:26;;;;;;;27.80;11.20;;;6.50;99.90;;;;;;5068233;23;20182;-90
2022/12/06 05:46:27;;;;;;;21.93;9.77;;;6.70;99.90;;;;;;5068588;23;20149;-91
2022/12/06 05:48:28;;;;;;;20.57;9.40;;;6.60;99.90;;;;;;5068512;23;20161;-93
2022/12/06 05:50:29;;;;;;;16.87;10.00;;;6.70;99.90;;;;;;5067993;23;20176;-92
2022/12/06 05:52:31;;;;;;;20.57;9.73;;;6.70;99.90;;;;;;5068380;23;20153;-91
2022/12/06 05:54:32;;;;;;;33.23;9.97;;;7.10;99.90;;;;;;5067964;23;20216;-91
2022/12/06 05:56:33;;;;;;;27.40;10.67;;;7.20;99.90;;;;;;5068166;23;20476;-92
2022/12/06 05:58:34;;;;;;;19.37;9.57;;;7.10;99.90;;;;;;5067875;23;20197;-90
2022/12/06 06:00:35;;;;;;;21.80;10.00;;;7.30;99.90;;;;;;5092488;23;21170;-93
2022/12/06 06:02:36;;;;;;;22.37;10.63;;;7.40;99.90;;;;;;5092685;23;20307;-92
2022/12/06 06:04:37;;;;;;;22.20;10.07;;;7.10;99.90;;;;;;5092073;23;20165;-92
2022/12/06 06:06:37;;;;;;;25.53;11.00;;;7.30;99.90;;;;;;5068089;23;20165;-91
2022/12/06 06:08:38;;;;;;;22.97;11.00;;;7.70;99.90;;;;;;5068607;23;20184;-92
2022/12/06 06:10:39;;;;;;;26.47;11.90;;;7.80;99.90;;;;;;5068552;23;20228;-91
2022/12/06 06:12:39;;;;;;;24.83;11.17;;;7.60;99.90;;;;;;5093769;23;20592;-93
2022/12/06 06:14:40;;;;;;;25.97;10.90;;;7.20;99.90;;;;;;5070130;23;20184;-92
2022/12/06 06:16:41;;;;;;;27.23;10.67;;;7.10;99.90;;;;;;5095069;23;20144;-92
2022/12/06 06:18:41;;;;;;;26.17;11.80;;;6.70;99.90;;;;;;5070559;23;20217;-91
2022/12/06 06:20:48;;;;;;;23.53;9.97;;;6.40;99.90;;;;;;5070414;23;20478;-92
2022/12/06 06:22:48;;;;;;;24.83;10.63;;;6.10;99.90;;;;;;5070275;23;20154;-90
2022/12/06 06:24:50;;;;;;;31.27;11.03;;;5.90;99.90;;;;;;5070211;23;20562;-91
2022/12/06 06:26:51;;;;;;;28.10;9.70;;;5.90;99.90;;;;;;5070165;23;20197;-91
2022/12/06 06:28:51;;;;;;;27.00;9.50;;;5.70;99.90;;;;;;5070330;23;20154;-92
2022/12/06 06:30:52;;;;;;;26.63;10.07;;;5.50;99.90;;;;;;5070270;23;20625;-91
2022/12/06 06:32:53;;;;;;;19.57;9.73;;;5.30;99.90;;;;;;5094798;23;20172;-93
2022/12/06 06:34:53;;;;;;;23.73;9.30;;;5.20;99.90;;;;;;5069980;23;20173;-92
2022/12/06 06:36:54;;;;;;;20.57;8.87;;;5.10;99.90;;;;;;5070571;23;20149;-92
2022/12/06 06:38:57;;;;;;;23.37;10.80;;;5.20;99.90;;;;;;5070357;23;20216;-91
2022/12/06 06:41:02;;;;;;;23.07;10.03;;;5.10;99.90;;;;;;5071286;23;20200;-93
2022/12/06 06:43:19;;;;;;;17.60;8.40;;;5.10;99.90;;;;;;5070018;23;20160;-91
2022/12/06 06:45:19;;;;;;;23.53;8.90;;;5.10;99.90;;;;;;5086843;23;20642;-92
2022/12/06 06:47:21;;;;;;;23.20;8.50;;;5.10;99.90;;;;;;5119271;23;20192;-91
2022/12/06 06:49:22;;;;;;;24.27;8.77;;;5.10;99.90;;;;;;5094392;23;20161;-92
2022/12/06 06:51:22;;;;;;;21.30;8.63;;;5.10;99.90;;;;;;5094817;23;20180;-92
2022/12/06 06:53:25;;;;;;;22.70;8.30;;;5.00;99.90;;;;;;5094518;23;20159;-92
2022/12/06 06:55:25;;;;;;;23.40;8.17;;;5.10;99.90;;;;;;5094612;23;20169;-92
2022/12/06 06:57:26;;;;;;;16.37;8.07;;;5.10;99.90;;;;;;5119054;23;20160;-93
2022/12/06 06:59:27;;;;;;;18.33;8.20;;;5.10;99.90;;;;;;5094038;23;20189;-91
2022/12/06 07:01:28;;;;;;;14.33;7.90;;;5.10;99.90;;;;;;5094490;23;20227;-91
2022/12/06 07:03:29;;;;;;;16.93;8.27;;;5.00;99.90;;;;;;5094490;23;20540;-93
2022/12/06 07:05:29;;;;;;;19.47;7.93;;;5.00;99.90;;;;;;5094099;23;20192;-93
2022/12/06 07:07:30;;;;;;;19.10;7.67;;;4.90;99.90;;;;;;5094289;23;20623;-91
2022/12/06 07:09:31;;;;;;;29.07;8.73;;;5.00;99.90;;;;;;5093980;23;20201;-92
2022/12/06 07:11:32;;;;;;;55.03;9.00;;;4.90;99.90;;;;;;5094237;23;20153;-93
2022/12/06 07:13:35;;;;;;;19.00;8.30;;;4.90;99.90;;;;;;5094157;23;20694;-91
2022/12/06 07:15:36;;;;;;;35.43;13.10;;;4.90;99.90;;;;;;5094396;23;20226;-92
2022/12/06 07:17:36;;;;;;;43.47;11.43;;;5.00;99.90;;;;;;5093910;23;20227;-92
2022/12/06 07:19:37;;;;;;;72.80;11.80;;;4.90;99.90;;;;;;5094679;23;20176;-91
2022/12/06 07:21:38;;;;;;;48.83;9.27;;;4.80;99.90;;;;;;5094761;23;20611;-92
2022/12/06 07:23:39;;;;;;;26.70;8.83;;;4.80;99.90;;;;;;5093952;23;20153;-93
2022/12/06 07:25:40;;;;;;;53.90;9.83;;;4.80;99.90;;;;;;5118757;23;20270;-91
2022/12/06 07:27:41;;;;;;;80.80;9.93;;;4.90;99.90;;;;;;5094240;23;20153;-93
2022/12/06 07:29:41;;;;;;;15.87;8.57;;;5.00;99.90;;;;;;5118352;23;20215;-93
2022/12/06 07:31:42;;;;;;;25.50;8.40;;;5.00;99.90;;;;;;5118786;23;20155;-92
2022/12/06 07:33:44;;;;;;;33.17;14.07;;;4.90;99.90;;;;;;5094637;23;20153;-92
2022/12/06 07:35:51;;;;;;;53.47;8.87;;;5.00;99.90;;;;;;5118647;23;20231;-90
2022/12/06 07:37:52;;;;;;;29.60;8.07;;;4.90;99.90;;;;;;5094082;23;20157;-93
2022/12/06 07:39:52;;;;;;;43.70;8.30;;;4.90;99.90;;;;;;5094379;23;20181;-92
2022/12/06 07:46:40;;;;;;;18.77;8.30;;;5.10;99.90;;;;;;5118662;23;20148;-92
2022/12/06 07:48:50;;;;;;;33.57;8.03;;;5.10;99.90;;;;;;5118802;23;20152;-92
2022/12/06 07:50:51;;;;;;;30.93;8.80;;;5.00;99.90;;;;;;5093967;23;20284;-91
2022/12/06 07:52:52;;;;;;;19.27;7.83;;;5.00;99.90;;;;;;5118652;23;20157;-90
2022/12/06 07:54:52;;;;;;;27.70;9.40;;;5.00;99.90;;;;;;5094027;23;20173;-92
2022/12/06 07:56:55;;;;;;;19.17;8.53;;;5.10;99.90;;;;;;5118318;23;20163;-93
2022/12/06 07:58:55;;;;;;;28.30;10.27;;;5.20;99.90;;;;;;5093830;23;20223;-92
2022/12/06 08:00:56;;;;;;;232.97;14.63;;;5.20;99.90;;;;;;5094320;23;20152;-92
2022/12/06 08:02:57;;;;;;;216.07;14.77;;;5.10;99.90;;;;;;5093994;23;20153;-92
2022/12/06 08:04:57;;;;;;;379.13;17.23;;;5.10;99.90;;;;;;5118166;23;20599;-91
2022/12/06 08:06:59;;;;;;;386.83;16.43;;;5.10;99.90;;;;;;5094093;23;20493;-93
2022/12/06 08:09:00;;;;;;;650.17;20.77;;;5.20;99.90;;;;;;5094027;23;20246;-92
2022/12/06 08:11:06;;;;;;;366.37;17.70;;;5.30;99.90;;;;;;5093866;23;20149;-91
2022/12/06 08:13:06;;;;;;;628.87;18.60;;;5.40;99.90;;;;;;5093872;23;20181;-92
2022/12/06 08:15:11;;;;;;;368.67;14.63;;;5.50;99.90;;;;;;5117891;23;20172;-94
2022/12/06 08:17:12;;;;;;;435.77;16.57;;;5.60;99.90;;;;;;5118309;23;20156;-93
2022/12/06 08:19:13;;;;;;;244.87;15.60;;;5.50;99.90;;;;;;5094048;23;20184;-92
2022/12/06 08:21:15;;;;;;;451.83;22.70;;;5.70;99.90;;;;;;5093680;23;20145;-92
2022/12/06 08:23:16;;;;;;;373.37;18.73;;;5.50;99.90;;;;;;5093582;23;20153;-92
2022/12/06 08:25:16;;;;;;;148.63;11.57;;;5.60;99.90;;;;;;5094165;23;20251;-92
2022/12/06 08:27:17;;;;;;;257.87;11.83;;;5.60;99.90;;;;;;5093869;23;20179;-91
2022/12/06 08:29:19;;;;;;;234.17;10.60;;;5.50;99.90;;;;;;5093919;23;20153;-92
2022/12/06 08:31:22;;;;;;;75.53;10.20;;;5.60;99.90;;;;;;5093826;23;20157;-91
2022/12/06 08:33:23;;;;;;;50.27;8.77;;;5.90;99.90;;;;;;5094165;23;20157;-92
2022/12/06 08:35:24;;;;;;;36.70;9.00;;;5.80;99.90;;;;;;5093339;23;20173;-92
2022/12/06 08:37:25;;;;;;;46.83;10.20;;;5.90;99.90;;;;;;5118491;23;20155;-93
2022/12/06 08:39:27;;;;;;;62.13;9.50;;;5.90;99.90;;;;;;5093684;23;20247;-91
2022/12/06 08:43:47;;;;;;;74.10;10.90;;;5.60;99.90;;;;;;5118384;23;20147;-92
2022/12/06 08:45:51;;;;;;;71.90;11.13;;;5.50;99.90;;;;;;5117813;23;20172;-92
2022/12/06 08:47:52;;;;;;;59.23;11.03;;;5.70;99.90;;;;;;5094003;23;20149;-93
2022/12/06 08:49:52;;;;;;;63.70;10.53;;;5.80;99.90;;;;;;5118465;23;20155;-91
2022/12/06 08:51:53;;;;;;;60.20;12.00;;;5.90;99.90;;;;;;5093725;23;20236;-92
2022/12/06 08:53:55;;;;;;;30.73;10.77;;;5.80;99.90;;;;;;5118116;23;20275;-94
2022/12/06 08:55:56;;;;;;;42.60;10.60;;;5.80;99.90;;;;;;5093632;23;20180;-91
2022/12/06 08:57:56;;;;;;;27.43;9.90;;;5.70;99.90;;;;;;5118335;23;20152;-92
2022/12/06 08:59:57;;;;;;;26.57;10.83;;;5.80;99.90;;;;;;5093569;23;20157;-92
2022/12/06 09:01:58;;;;;;;24.50;10.10;;;6.00;99.90;;;;;;5093428;23;20156;-92
2022/12/06 09:04:03;;;;;;;18.20;9.97;;;6.20;99.90;;;;;;5093030;23;20157;-93
2022/12/06 09:06:04;;;;;;;23.77;9.87;;;6.40;99.90;;;;;;5093595;23;20191;-93
2022/12/06 09:08:04;;;;;;;23.20;9.20;;;6.60;99.90;;;;;;5093932;23;20153;-93
2022/12/06 09:10:06;;;;;;;21.07;9.43;;;6.70;99.90;;;;;;5093663;23;20203;-92
2022/12/06 09:12:07;;;;;;;20.10;9.30;;;6.60;99.90;;;;;;5093862;23;20153;-92
2022/12/06 09:14:09;;;;;;;17.27;9.57;;;6.70;99.90;;;;;;5118108;23;20162;-91
2022/12/06 09:16:12;;;;;;;26.60;9.97;;;7.00;99.90;;;;;;5118020;23;20156;-91
2022/12/06 09:18:13;;;;;;;25.30;9.88;;;7.10;99.90;;;;;;5093078;23;20220;-91
2022/12/06 09:20:17;;;;;;;23.93;10.07;;;7.10;99.90;;;;;;5093632;23;20213;-92
2022/12/06 09:22:17;;;;;;;17.80;9.60;;;7.20;99.90;;;;;;5093532;23;20145;-91
2022/12/06 09:24:18;;;;;;;22.23;9.70;;;7.20;99.90;;;;;;5093446;23;20231;-91
2022/12/06 09:26:19;;;;;;;16.25;8.52;;;7.30;99.90;;;;;;5093437;23;20169;-92
2022/12/06 09:28:19;;;;;;;24.87;9.67;;;7.30;99.90;;;;;;5093291;23;20188;-92
2022/12/06 09:30:20;;;;;;;27.25;9.50;;;7.20;99.90;;;;;;5118114;23;20160;-92
2022/12/06 09:32:21;;;;;;;27.65;10.05;;;7.30;99.90;;;;;;5093748;23;20153;-92
2022/12/06 09:34:22;;;;;;;25.73;9.75;;;7.40;99.90;;;;;;5118046;23;20580;-91
2022/12/06 09:36:27;;;;;;;17.73;10.05;;;7.30;99.90;;;;;;5093330;23;20159;-92
2022/12/06 09:38:29;;;;;;;27.67;10.07;;;7.40;99.90;;;;;;5093715;23;20185;-93
2022/12/06 09:40:41;;;;;;;20.02;10.02;;;7.40;99.90;;;;;;5093701;23;20582;-92
2022/12/06 09:42:57;;;;;;;19.03;9.47;;;7.10;99.90;;;;;;5093568;23;20678;-91
2022/12/06 09:45:35;;;;;;;26.77;9.70;;;7.00;99.90;;;;;;5117864;23;20176;-92
2022/12/06 09:47:54;;;;;;;19.40;9.23;;;6.70;99.90;;;;;;5119106;23;20160;-91
2022/12/06 09:50:19;;;;;;;21.40;9.75;;;6.60;99.90;;;;;;5095082;23;20603;-92
2022/12/06 09:52:37;;;;;;;15.85;7.93;;;6.80;99.90;;;;;;5094881;23;20225;-92
2022/12/06 09:54:47;;;;;;;19.65;9.70;;;7.00;99.90;;;;;;5094966;23;20631;-93
2022/12/06 09:56:59;;;;;;;29.65;9.77;;;7.20;99.90;;;;;;5095212;23;20159;-92
2022/12/06 09:59:14;;;;;;;23.92;10.05;;;7.40;99.90;;;;;;5094761;23;20718;-93
2022/12/06 10:01:20;;;;;;;16.07;8.67;;;7.40;99.90;;;;;;5094795;23;20216;-92
2022/12/06 10:03:26;;;;;;;16.17;8.45;;;7.40;99.90;;;;;;5119546;23;20480;-93
2022/12/06 10:05:40;;;;;;;25.27;9.13;;;7.50;99.90;;;;;;5094755;23;20169;-92
2022/12/06 10:07:59;;;;;;;21.80;9.18;;;7.60;99.90;;;;;;5095197;23;20157;-92
2022/12/06 10:10:12;;;;;;;21.60;9.70;;;7.60;99.90;;;;;;5094861;23;20161;-91
2022/12/06 10:12:36;;;;;;;21.33;9.55;;;7.60;99.90;;;;;;5094703;23;20160;-91
2022/12/06 10:14:58;;;;;;;15.70;8.37;;;7.40;99.90;;;;;;5094840;23;20665;-92
2022/12/06 10:17:27;;;;;;;28.47;9.17;;;7.10;99.90;;;;;;5119873;23;20148;-90
2022/12/06 10:19:47;;;;;;;21.57;10.23;;;6.60;99.90;;;;;;5118948;23;20270;-91
2022/12/06 10:21:56;;;;;;;21.70;10.70;;;6.70;99.90;;;;;;5119322;23;20155;-92
2022/12/06 10:24:35;;;;;;;19.27;9.83;;;6.80;99.90;;;;;;5120050;23;20155;-92
2022/12/06 10:26:36;;;;;;;29.67;10.67;;;6.90;99.90;;;;;;5119353;23;20148;-92
2022/12/06 10:29:04;;;;;;;33.67;11.67;;;7.10;99.90;;;;;;5094494;23;20153;-92
2022/12/06 10:31:21;;;;;;;25.63;10.93;;;7.30;99.90;;;;;;5094524;23;20608;-91
2022/12/06 10:33:31;;;;;;;29.45;10.77;;;7.50;99.90;;;;;;5094544;23;20690;-91
2022/12/06 10:35:52;;;;;;;19.90;10.27;;;7.50;99.90;;;;;;5118944;23;20180;-91
2022/12/06 10:37:53;;;;;;;25.40;10.20;;;7.40;99.90;;;;;;5119402;23;20153;-91
2022/12/06 10:40:11;;;;;;;26.77;9.70;;;7.40;99.90;;;;;;5094482;23;20244;-91
2022/12/06 10:42:23;;;;;;;20.17;9.32;;;7.50;99.90;;;;;;5119210;23;20152;-92
2022/12/06 10:44:33;;;;;;;25.15;10.40;;;7.40;99.90;;;;;;5094545;23;20180;-91
2022/12/06 10:49:11;;;;;;;21.33;11.13;;;7.60;99.90;;;;;;5118910;23;20156;-91
2022/12/06 10:51:19;;;;;;;25.93;9.87;;;7.60;99.90;;;;;;5094846;23;20603;-90
2022/12/06 10:53:24;;;;;;;22.87;10.23;;;7.60;99.90;;;;;;5094625;23;20600;-92
2022/12/06 10:55:35;;;;;;;26.60;9.23;;;7.40;99.90;;;;;;5119239;23;20200;-91
2022/12/06 10:58:07;;;;;;;18.47;10.00;;;7.20;99.90;;;;;;5094495;23;20159;-92
2022/12/06 11:00:20;;;;;;;22.47;9.90;;;7.10;99.90;;;;;;5094318;23;20169;-92
2022/12/06 11:02:39;;;;;;;18.77;9.57;;;7.20;99.90;;;;;;5094428;23;20180;-92
2022/12/06 11:04:41;;;;;;;20.42;10.38;;;7.10;99.90;;;;;;5119066;23;20223;-94
2022/12/06 11:06:52;;;;;;;20.17;10.13;;;7.40;99.90;;;;;;5094680;23;20570;-91
2022/12/06 11:08:57;;;;;;;22.00;11.30;;;7.50;99.90;;;;;;5094321;23;20196;-86
2022/12/06 11:11:00;;;;;;;22.30;10.07;;;7.40;99.90;;;;;;5094344;23;20306;-91
2022/12/06 11:13:15;;;;;;;16.92;7.90;;;7.20;99.90;;;;;;5094556;23;20225;-93